Prathersville, Missouri
Current Conditions -  °F | °C
As of 10:54 PM on Saturday 22 Nov 2014 (Local Time) from KCOU Reporting Station
Overcast Overcast  
Wind Chill: 54°   Ceiling: 1500
Heat Index: 54°   Visibility: 10mi
Dew Point: 50°   Wind: 17mph
Humidity: 86%   Direction: 160°SSE
Pressure: 29.8"   Gusts: NA
Location:  39.0235°N, 92.2896°W
Report Text: KCOU 230454Z AUTO 16015KT 10SM OVC015 12/10 A2980 RMK AO2 SLP089 T01220100 $
Loading
Personal Weather Stations






























Interactive Weather Map New forecast layout! Learn more

10-Day Weather Forecast

Advertisements
Track Severe Weather on mobile